Aérodrome :
LOGIN :

S'inscrire | Disclaimer

   EN    FR    IT 

 










Légende :    VFR   VFR Marginal   IFR   IFR Intensif   IFR Très Intensif
Visi : 
Plafond : 
>= 8 km
>= 3000ft
5 à 8 km
1000 à 3000 ft
1500m à 5 km
500 à 1000 ft
800 à 1500m
200 à 500 ft
< 800m
< 200 ft
Symboles :   Orages  Brouillard  Fortes neiges  Fortes précipitations  Vent > 20 kt
SIGMETs :   Divers  Orages  Givrage  Turbulence  Onde Orograph.  Cendres Volcan.







- Altitude de l'aérodrome : 527 ft
- Code IATA : DBV


LDDU - Dubrovnik

DERNIER METAR :
  • 211230Z 29010KT CAVOK 21/08 Q1023 NOSIG

METARs EXPIRÉS :
  • 211200Z 29010KT 250V320 CAVOK 21/07 Q1023 NOSIG
  • 211130Z 28010KT 250V310 CAVOK 22/07 Q1023 NOSIG
  • 211100Z 27010KT 230V320 CAVOK 21/06 Q1023 NOSIG
  • 211030Z 25009KT 220V300 CAVOK 21/06 Q1023 NOSIG
  • 211000Z 28007KT 230V340 CAVOK 22/05 Q1024 NOSIG

TAF TAF LDDU
Valide du 21 à 12h jusqu'au 22 à 12h UTC


211125Z 2112/2212 28009KT CAVOK TX22/2112Z TN14/2203Z
BECMG 2117/2119 04008KT
TEMPO 2200/2206 08007KT
BECMG 2210/2212 13007KT
Pas de NOTAMs connus pour ce terrain.



MET'MAP, la Météo Aéronautique d'un coup d'oeil ! - Copyright ORBIFLY Décembre 2007 - Disclaimer

ORBIFLY MET'MAP TEAM :

Programmation & Développement : Alexandra Zaïnal
Conception & Développement : Baudouin d'Aumeries
Co-Programmation & Développement : Marc-Olivier Méhu
Soutien technique & logistique : Manuel Goepfert

Contact : metmap@orbifly.com




SOURCES & CREDITS :

   NOAA